Terminal Aerodrome Forecast
Issued by NWS Topeka, KS

Home | Current Version | Previous Version | Graphics & Text | Print | Product List | Glossary Off
Versions: 1 2 3 4 5 6 7 8 9 10 11 12 13

000
FTUS43 KTOP 231144
TAFTOP
TAF
KTOP 231144Z 2312/2412 05009KT P6SM SCT100
     FM231400 06012G20KT P6SM VCSH OVC070
     FM231800 10013G20KT P6SM BKN060
     FM232200 08010KT P6SM SCT100
     FM240500 28010KT P6SM SCT015
     FM241000 28014G23KT P6SM BKN015=

USA.gov is the U.S. government's official web portal to all federal, state and local government web resources and services.